Time;durP1;ratioP1;P1;durP2;ratioP2;P2;SDS_P1;SDS_P2;PMS_P1;PMS_P2;Temp;Humidity;BMP_temperature;BMP_pressure;BME280_temperature;BME280_humidity;BME280_pressure;Samples;Min_cycle;Max_cycle;Signal;HPM_P1;HPM_P2
2023/01/04 00:02:17;;;;;;;18.38;3.28;;;12.40;99.90;;;;;;4995791;28;20073;-63
2023/01/04 00:04:43;;;;;;;13.38;2.75;;;12.50;99.90;;;;;;4995277;28;20054;-62
2023/01/04 00:07:10;;;;;;;11.55;2.45;;;12.50;99.90;;;;;;4995996;28;20050;-62
2023/01/04 00:09:37;;;;;;;15.35;2.25;;;12.50;99.90;;;;;;4979034;28;20039;-64
2023/01/04 00:12:04;;;;;;;15.82;4.07;;;12.50;99.90;;;;;;4976989;28;20127;-64
2023/01/04 00:14:31;;;;;;;14.95;3.40;;;12.50;99.90;;;;;;4994693;28;20035;-62
2023/01/04 00:16:57;;;;;;;14.32;2.80;;;12.50;99.90;;;;;;4977223;28;20039;-65
2023/01/04 00:19:24;;;;;;;21.30;4.18;;;12.50;99.90;;;;;;4995173;28;20047;-64
2023/01/04 00:21:52;;;;;;;9.23;2.33;;;12.50;99.90;;;;;;4993525;28;20026;-64
2023/01/04 00:24:18;;;;;;;17.88;2.92;;;12.50;99.90;;;;;;4994671;28;20641;-64
2023/01/04 00:26:45;;;;;;;12.27;2.72;;;12.60;99.90;;;;;;4992652;28;20065;-64
2023/01/04 00:29:12;;;;;;;15.15;2.67;;;12.60;99.90;;;;;;4992785;28;20034;-63
2023/01/04 00:31:39;;;;;;;12.80;1.83;;;12.60;99.90;;;;;;4994058;28;20454;-64
2023/01/04 00:34:06;;;;;;;32.72;3.42;;;12.60;99.90;;;;;;4959371;28;20045;-64
2023/01/04 00:36:33;;;;;;;12.38;2.00;;;12.70;99.90;;;;;;4995709;28;20070;-63
2023/01/04 00:39:06;;;;;;;14.40;2.85;;;12.60;99.90;;;;;;4979488;28;20068;-63
2023/01/04 00:41:39;;;;;;;11.40;2.33;;;12.60;99.90;;;;;;4980208;28;20050;-63
2023/01/04 00:44:26;;;;;;;13.45;1.92;;;12.60;99.90;;;;;;4992817;28;20026;-63
2023/01/04 00:46:53;;;;;;;12.00;1.90;;;12.70;99.90;;;;;;4978881;28;20051;-63
2023/01/04 00:49:20;;;;;;;11.15;2.10;;;12.60;99.90;;;;;;4995716;28;20039;-63
2023/01/04 00:51:47;;;;;;;12.45;1.88;;;12.70;99.90;;;;;;4978977;28;20062;-63
2023/01/04 00:54:14;;;;;;;7.97;1.63;;;12.70;99.90;;;;;;4995788;28;20085;-63
2023/01/04 00:56:41;;;;;;;9.55;2.78;;;12.60;99.90;;;;;;4996225;28;20330;-63
2023/01/04 00:59:09;;;;;;;13.20;2.80;;;12.60;99.90;;;;;;4996403;28;20043;-63
2023/01/04 01:01:35;;;;;;;7.45;2.72;;;12.60;99.90;;;;;;4978875;28;20042;-64
2023/01/04 01:04:03;;;;;;;12.55;2.30;;;12.60;99.90;;;;;;4979563;28;20023;-64
2023/01/04 01:06:30;;;;;;;7.07;1.95;;;12.60;99.90;;;;;;4996460;28;20046;-63
2023/01/04 01:08:57;;;;;;;14.55;2.63;;;12.60;99.90;;;;;;4995903;28;20065;-64
2023/01/04 01:11:24;;;;;;;13.60;2.80;;;12.60;99.90;;;;;;4994831;28;20094;-62
2023/01/04 01:13:51;;;;;;;17.08;2.15;;;12.60;99.90;;;;;;4995154;28;20035;-63
2023/01/04 01:16:19;;;;;;;14.02;4.30;;;12.60;99.90;;;;;;4995606;28;20033;-63
2023/01/04 01:19:06;;;;;;;19.23;2.38;;;12.60;99.90;;;;;;4995989;28;20094;-65
2023/01/04 01:21:33;;;;;;;16.23;2.58;;;12.60;99.90;;;;;;4995347;28;20054;-64
2023/01/04 01:24:00;;;;;;;15.48;2.08;;;12.60;99.90;;;;;;4995706;28;20062;-62
2023/01/04 01:26:26;;;;;;;13.88;2.60;;;12.60;99.90;;;;;;4995410;28;20051;-63
2023/01/04 01:28:53;;;;;;;13.52;2.90;;;12.60;99.90;;;;;;4978219;28;20027;-64
2023/01/04 01:31:22;;;;;;;11.95;2.88;;;12.60;99.90;;;;;;4978275;28;20059;-63
2023/01/04 01:33:49;;;;;;;17.00;2.70;;;12.60;99.90;;;;;;4977069;28;20050;-64
2023/01/04 01:36:17;;;;;;;15.82;2.65;;;12.60;99.90;;;;;;4977406;28;20023;-63
2023/01/04 01:38:44;;;;;;;9.93;4.13;;;12.60;99.90;;;;;;4977992;28;20066;-63
2023/01/04 01:41:19;;;;;;;15.27;3.30;;;12.60;99.90;;;;;;4976344;28;20077;-62
2023/01/04 01:43:57;;;;;;;12.40;2.15;;;12.60;99.90;;;;;;4962646;28;20038;-63
2023/01/04 01:46:38;;;;;;;16.63;2.95;;;12.60;99.90;;;;;;4978234;28;20100;-63
2023/01/04 01:49:25;;;;;;;19.33;3.75;;;12.60;99.90;;;;;;4962138;28;20054;-64
2023/01/04 01:51:53;;;;;;;15.63;3.08;;;12.60;99.90;;;;;;4982246;28;20054;-63
2023/01/04 01:54:25;;;;;;;19.20;3.00;;;12.60;99.90;;;;;;4945674;28;20035;-64
2023/01/04 01:56:52;;;;;;;16.08;2.88;;;12.60;99.90;;;;;;4991824;28;20031;-62
2023/01/04 01:59:21;;;;;;;14.10;1.92;;;12.70;99.90;;;;;;4630269;28;10000577;-64
2023/01/04 02:01:47;;;;;;;21.75;4.05;;;12.60;99.90;;;;;;4990807;28;20143;-64
2023/01/04 02:04:15;;;;;;;13.57;1.90;;;12.70;99.90;;;;;;4993481;28;20055;-62
2023/01/04 02:06:45;;;;;;;17.20;2.63;;;12.70;99.90;;;;;;4978023;28;20035;-63
2023/01/04 02:09:12;;;;;;;24.35;2.97;;;12.70;99.90;;;;;;4962531;28;20062;-63
2023/01/04 02:11:38;;;;;;;12.40;2.92;;;12.70;99.90;;;;;;4960852;28;20053;-62
2023/01/04 02:17:13;;;;;;;20.70;3.95;;;12.70;99.90;;;;;;4994302;28;20046;-64
2023/01/04 02:20:18;;;;;;;17.73;3.13;;;12.80;99.90;;;;;;4974697;29;20041;-63
2023/01/04 02:22:54;;;;;;;10.68;2.15;;;12.80;99.90;;;;;;4990641;28;20031;-64
2023/01/04 02:25:58;;;;;;;15.63;2.75;;;12.80;99.90;;;;;;4994703;28;20074;-62
2023/01/04 02:28:50;;;;;;;15.20;2.90;;;12.70;99.90;;;;;;4983455;28;20073;-63
2023/01/04 02:31:29;;;;;;;17.65;3.55;;;12.70;99.90;;;;;;4993939;28;20031;-63
2023/01/04 02:34:22;;;;;;;14.20;2.50;;;12.80;99.90;;;;;;4978803;28;20047;-63
2023/01/04 02:36:58;;;;;;;10.77;2.53;;;12.80;99.90;;;;;;4964187;28;20026;-63
2023/01/04 02:39:56;;;;;;;14.27;4.32;;;12.80;99.90;;;;;;4962011;28;20030;-64
2023/01/04 02:45:30;;;;;;;18.53;4.03;;;12.70;99.90;;;;;;4974860;29;20070;-62
2023/01/04 02:50:56;;;;;;;17.50;4.05;;;12.80;99.90;;;;;;4974840;29;20051;-64
2023/01/04 02:53:23;;;;;;;22.75;3.13;;;12.80;99.90;;;;;;4979188;28;20067;-63
2023/01/04 02:55:59;;;;;;;20.10;4.15;;;12.80;99.90;;;;;;4994262;28;20099;-62
2023/01/04 02:58:53;;;;;;;17.08;3.30;;;12.80;99.90;;;;;;4994237;28;20030;-63
2023/01/04 03:07:57;;;;;;;16.27;2.83;;;12.70;99.90;;;;;;4994505;28;20045;-62
2023/01/04 03:10:33;;;;;;;15.93;3.10;;;12.70;99.90;;;;;;4977695;28;20106;-62
2023/01/04 03:13:10;;;;;;;22.48;5.93;;;12.70;99.90;;;;;;4993482;28;20054;-62
2023/01/04 03:15:37;;;;;;;14.75;3.13;;;12.60;99.90;;;;;;4962418;28;20050;-62
2023/01/04 03:18:14;;;;;;;21.33;3.25;;;12.60;99.90;;;;;;4962265;28;20082;-62
2023/01/04 03:20:41;;;;;;;13.45;2.33;;;12.60;99.90;;;;;;4977561;28;20098;-62
2023/01/04 03:37:36;;;;;;;10.43;3.22;;;12.60;99.90;;;;;;4982519;28;20081;-62
2023/01/04 03:49:21;;;;;;;21.42;2.40;;;12.60;99.90;;;;;;4996436;28;20364;-62
2023/01/04 03:51:48;;;;;;;12.15;2.08;;;12.60;99.90;;;;;;4964882;28;20066;-63
2023/01/04 03:54:24;;;;;;;9.68;2.47;;;12.60;99.90;;;;;;4963218;28;20074;-63
2023/01/04 03:56:51;;;;;;;9.68;1.70;;;12.60;99.90;;;;;;4964426;28;20069;-62
2023/01/04 03:59:21;;;;;;;7.93;1.30;;;12.60;99.90;;;;;;4996160;28;20050;-62
2023/01/04 04:01:48;;;;;;;6.00;1.85;;;12.60;99.90;;;;;;4979900;28;20043;-62
2023/01/04 04:09:46;;;;;;;7.32;1.38;;;12.50;99.90;;;;;;4981149;28;20039;-64
2023/01/04 04:12:13;;;;;;;6.03;1.10;;;12.60;99.90;;;;;;4995577;28;20061;-61
2023/01/04 04:14:39;;;;;;;10.05;1.55;;;12.60;99.90;;;;;;4996414;28;20026;-61
2023/01/04 04:17:06;;;;;;;6.45;1.55;;;12.60;99.90;;;;;;4995806;28;20069;-63
2023/01/04 04:19:33;;;;;;;8.48;1.42;;;12.60;99.90;;;;;;4995526;28;20058;-63
2023/01/04 04:22:00;;;;;;;4.00;0.95;;;12.60;99.90;;;;;;4996182;28;20037;-63
2023/01/04 04:24:26;;;;;;;6.05;1.10;;;12.60;99.90;;;;;;4979529;28;20082;-63
2023/01/04 04:26:53;;;;;;;6.38;1.52;;;12.60;99.90;;;;;;4996561;28;20035;-63
2023/01/04 04:29:21;;;;;;;5.20;1.20;;;12.60;99.90;;;;;;4979589;28;20030;-63
2023/01/04 04:31:48;;;;;;;11.00;1.60;;;12.60;99.90;;;;;;4995830;28;20031;-63
2023/01/04 04:34:14;;;;;;;6.88;1.35;;;12.60;99.90;;;;;;4979833;28;20053;-63
2023/01/04 04:36:41;;;;;;;6.68;1.02;;;12.60;99.90;;;;;;4978544;28;20035;-64
2023/01/04 04:39:09;;;;;;;6.75;1.52;;;12.60;99.90;;;;;;4996640;28;20078;-63
2023/01/04 04:41:38;;;;;;;7.05;1.20;;;12.60;99.90;;;;;;4994371;28;20074;-62
2023/01/04 04:44:16;;;;;;;4.03;1.20;;;12.60;99.90;;;;;;4996222;28;20106;-64
2023/01/04 04:46:45;;;;;;;8.30;1.20;;;12.60;99.90;;;;;;4994595;28;20106;-61
2023/01/04 04:49:12;;;;;;;8.15;1.40;;;12.70;99.90;;;;;;4979440;28;20081;-62
2023/01/04 04:51:39;;;;;;;8.95;1.55;;;12.70;99.90;;;;;;4995458;28;20035;-64
2023/01/04 04:54:07;;;;;;;4.80;1.58;;;12.70;99.90;;;;;;4995272;28;20101;-63
2023/01/04 04:56:35;;;;;;;5.50;1.40;;;12.80;99.90;;;;;;4994956;28;20085;-63
2023/01/04 04:59:03;;;;;;;3.95;1.20;;;12.80;99.90;;;;;;4994759;28;20046;-61
2023/01/04 05:01:30;;;;;;;8.88;1.67;;;12.80;99.90;;;;;;4977928;28;20069;-62
2023/01/04 05:03:57;;;;;;;7.35;1.48;;;12.80;99.90;;;;;;4995626;28;20043;-62
2023/01/04 05:06:23;;;;;;;4.82;1.23;;;12.80;99.90;;;;;;4978688;28;20180;-62
2023/01/04 05:08:50;;;;;;;6.50;1.60;;;12.90;99.90;;;;;;4995277;28;20039;-62
2023/01/04 05:12:58;;;;;;;7.38;1.65;;;12.80;99.90;;;;;;4977913;28;20031;-61
2023/01/04 05:14:03;;;;;;;10.10;1.80;;;12.90;99.90;;;;;;4986711;28;20035;-63
2023/01/04 05:16:30;;;;;;;10.80;2.00;;;12.90;99.90;;;;;;4995287;28;20026;-63
2023/01/04 05:18:57;;;;;;;9.80;1.77;;;13.00;99.90;;;;;;4995274;28;20053;-61
2023/01/04 05:21:24;;;;;;;7.30;1.55;;;13.00;99.90;;;;;;4995394;28;20077;-62
2023/01/04 05:23:50;;;;;;;6.43;2.20;;;13.00;99.90;;;;;;4994791;28;20090;-64
2023/01/04 05:26:17;;;;;;;11.02;2.05;;;13.00;99.90;;;;;;4994386;28;20081;-62
2023/01/04 05:28:44;;;;;;;8.50;1.90;;;13.10;99.90;;;;;;4963103;28;20030;-63
2023/01/04 05:31:19;;;;;;;13.80;2.45;;;13.10;99.90;;;;;;4995353;28;20053;-62
2023/01/04 05:33:45;;;;;;;13.52;2.85;;;13.10;99.90;;;;;;4994952;28;20047;-62
2023/01/04 05:36:12;;;;;;;10.82;2.05;;;13.10;99.90;;;;;;4995025;28;20070;-62
2023/01/04 05:38:39;;;;;;;9.10;2.28;;;13.10;99.90;;;;;;4994784;28;20042;-62
2023/01/04 05:42:24;;;;;;;11.90;3.58;;;13.10;99.90;;;;;;4994549;28;20083;-62
2023/01/04 05:43:55;;;;;;;14.55;2.45;;;13.10;99.90;;;;;;4994792;28;20070;-63
2023/01/04 05:46:22;;;;;;;10.25;2.50;;;13.00;99.90;;;;;;4995519;28;20078;-64
2023/01/04 05:48:50;;;;;;;10.98;2.38;;;13.00;99.90;;;;;;4994764;28;20031;-62
2023/01/04 05:51:16;;;;;;;7.43;2.33;;;12.90;99.90;;;;;;4994742;28;20046;-62
2023/01/04 05:53:43;;;;;;;10.77;2.33;;;12.80;99.90;;;;;;4962568;28;20038;-63
2023/01/04 05:56:10;;;;;;;18.67;3.20;;;12.90;99.90;;;;;;4995209;28;20103;-61
2023/01/04 05:58:37;;;;;;;17.25;2.97;;;12.80;99.90;;;;;;4993920;28;20048;-62
2023/01/04 06:01:06;;;;;;;12.00;2.45;;;12.80;99.90;;;;;;4994803;28;20050;-63
2023/01/04 06:03:33;;;;;;;19.00;2.65;;;12.70;99.90;;;;;;4994172;28;20066;-63
2023/01/04 06:06:00;;;;;;;13.63;2.70;;;12.70;99.90;;;;;;4994076;28;20050;-63
2023/01/04 06:08:27;;;;;;;20.25;3.35;;;12.70;99.90;;;;;;4977699;28;20043;-64
2023/01/04 06:10:54;;;;;;;15.13;2.25;;;12.70;99.90;;;;;;4993851;28;20035;-64
2023/01/04 06:13:21;;;;;;;7.45;2.03;;;12.70;99.90;;;;;;4993046;28;20033;-62
2023/01/04 06:15:49;;;;;;;13.73;2.85;;;12.60;99.90;;;;;;4992858;28;20034;-62
2023/01/04 06:18:15;;;;;;;10.40;2.65;;;12.60;99.90;;;;;;4993394;28;20078;-65
2023/01/04 06:20:42;;;;;;;8.90;1.92;;;12.60;99.90;;;;;;4992824;28;20073;-63
2023/01/04 06:23:09;;;;;;;14.57;2.47;;;12.70;99.90;;;;;;4993024;28;20034;-62
2023/01/04 06:25:36;;;;;;;11.00;2.53;;;12.70;99.90;;;;;;4976283;28;20053;-62
2023/01/04 06:28:03;;;;;;;12.25;3.10;;;12.70;99.90;;;;;;4993286;28;20037;-63
2023/01/04 06:30:30;;;;;;;11.88;1.98;;;12.70;99.90;;;;;;4992999;28;20042;-62
2023/01/04 06:32:57;;;;;;;13.13;2.08;;;12.80;99.90;;;;;;4994072;28;20101;-62
2023/01/04 06:35:24;;;;;;;8.55;2.20;;;12.80;99.90;;;;;;4994358;28;20058;-62
2023/01/04 06:37:50;;;;;;;11.88;2.33;;;12.80;99.90;;;;;;4994438;28;20062;-62
2023/01/04 06:40:17;;;;;;;8.85;1.63;;;12.80;99.90;;;;;;4994200;28;20490;-63
2023/01/04 06:42:44;;;;;;;6.65;1.90;;;12.80;99.90;;;;;;4994075;28;20066;-61
2023/01/04 06:45:14;;;;;;;15.50;2.10;;;12.80;99.90;;;;;;4994398;28;20023;-63
2023/01/04 06:47:41;;;;;;;11.68;3.40;;;12.80;99.90;;;;;;4994237;28;20086;-63
2023/01/04 06:50:08;;;;;;;9.98;2.47;;;12.80;99.90;;;;;;4993802;28;20031;-63
2023/01/04 06:52:35;;;;;;;9.63;2.05;;;12.90;99.90;;;;;;4994430;28;20042;-62
2023/01/04 06:55:02;;;;;;;16.10;2.58;;;12.90;99.90;;;;;;4994173;28;20046;-63
2023/01/04 06:57:29;;;;;;;8.57;1.80;;;12.90;99.90;;;;;;4994240;28;20035;-62
2023/01/04 06:59:56;;;;;;;8.50;1.80;;;12.90;99.90;;;;;;4993886;28;20066;-62
2023/01/04 07:02:23;;;;;;;6.88;1.65;;;13.00;99.90;;;;;;4961900;28;20105;-62
2023/01/04 07:04:50;;;;;;;11.65;2.10;;;13.00;99.90;;;;;;4977928;28;20039;-62
2023/01/04 07:07:17;;;;;;;7.90;1.92;;;12.90;99.90;;;;;;4994578;28;20046;-63
2023/01/04 07:09:43;;;;;;;7.40;2.05;;;12.90;99.90;;;;;;4994666;28;20085;-63
2023/01/04 07:12:10;;;;;;;4.50;1.83;;;12.90;99.90;;;;;;4978987;28;20045;-63
2023/01/04 07:14:37;;;;;;;11.07;2.80;;;12.90;99.90;;;;;;4980818;28;20031;-63
2023/01/04 07:17:04;;;;;;;12.38;2.47;;;12.90;99.90;;;;;;4980731;28;20070;-62
2023/01/04 07:19:31;;;;;;;12.52;2.25;;;12.90;99.90;;;;;;4980425;28;20039;-62
2023/01/04 07:21:58;;;;;;;9.80;2.15;;;12.90;99.90;;;;;;4980529;28;20035;-62
2023/01/04 07:24:25;;;;;;;8.80;2.90;;;12.80;99.90;;;;;;4997863;28;20050;-62
2023/01/04 07:26:58;;;;;;;6.75;2.10;;;12.80;99.90;;;;;;4996892;28;20046;-63
2023/01/04 07:29:25;;;;;;;17.98;2.25;;;12.80;99.90;;;;;;4979525;28;20047;-63
2023/01/04 07:31:52;;;;;;;14.35;2.08;;;12.80;99.90;;;;;;4979124;28;20102;-64
2023/01/04 07:34:21;;;;;;;7.53;2.08;;;12.80;99.90;;;;;;4980268;28;20034;-62
2023/01/04 07:36:47;;;;;;;9.50;1.98;;;12.80;99.90;;;;;;4963188;28;20372;-62
2023/01/04 07:39:15;;;;;;;9.80;2.03;;;12.80;99.90;;;;;;4996846;28;20054;-63
2023/01/04 07:41:42;;;;;;;8.02;2.40;;;12.80;99.90;;;;;;4975700;28;20081;-62
2023/01/04 07:44:09;;;;;;;12.25;2.40;;;12.70;99.90;;;;;;4994061;28;20138;-64
2023/01/04 07:46:36;;;;;;;18.05;3.25;;;12.80;99.90;;;;;;4993470;28;20038;-63
2023/01/04 07:49:03;;;;;;;9.68;1.83;;;12.80;99.90;;;;;;4994273;28;20033;-61
2023/01/04 07:51:31;;;;;;;10.88;1.40;;;12.70;99.90;;;;;;4963980;28;20086;-63
2023/01/04 07:53:58;;;;;;;8.02;1.70;;;12.70;99.90;;;;;;4978482;28;20055;-62
2023/01/04 07:56:25;;;;;;;10.05;2.78;;;12.70;99.90;;;;;;4995823;28;20050;-62
2023/01/04 07:58:55;;;;;;;5.32;1.38;;;12.80;99.90;;;;;;4995607;28;20062;-64
2023/01/04 08:01:23;;;;;;;9.23;1.55;;;12.80;99.90;;;;;;4973366;28;20062;-63
2023/01/04 08:03:50;;;;;;;6.72;2.15;;;12.90;99.90;;;;;;4994703;28;20046;-63
2023/01/04 08:06:17;;;;;;;6.90;2.42;;;12.90;99.90;;;;;;4993132;28;20075;-63
2023/01/04 08:08:44;;;;;;;5.50;1.23;;;12.90;99.90;;;;;;4989029;28;20055;-63
2023/01/04 08:11:13;;;;;;;6.30;1.63;;;12.90;99.90;;;;;;4981807;28;20115;-62
2023/01/04 08:13:40;;;;;;;13.95;3.05;;;13.00;99.90;;;;;;4987482;28;20042;-61
2023/01/04 08:16:20;;;;;;;7.88;1.30;;;13.00;99.90;;;;;;4994048;28;20070;-63
2023/01/04 08:18:49;;;;;;;15.38;3.67;;;13.00;99.90;;;;;;4979237;28;20062;-63
2023/01/04 08:21:16;;;;;;;7.95;1.45;;;13.00;99.90;;;;;;4978571;28;20034;-62
2023/01/04 08:23:43;;;;;;;4.25;1.10;;;13.00;99.90;;;;;;4994408;28;20043;-62
2023/01/04 08:26:11;;;;;;;10.98;2.97;;;13.00;99.90;;;;;;4647664;28;10000010;-63
2023/01/04 08:28:38;;;;;;;7.22;1.63;;;13.00;99.90;;;;;;5000393;28;20205;-62
2023/01/04 08:31:10;;;;;;;7.55;1.50;;;13.10;99.90;;;;;;4993105;28;20106;-60
2023/01/04 08:33:37;;;;;;;8.98;1.55;;;13.10;99.90;;;;;;4976071;28;20027;-63
2023/01/04 08:36:20;;;;;;;9.30;2.45;;;13.10;99.90;;;;;;4987557;28;20027;-63
2023/01/04 08:38:54;;;;;;;7.47;2.33;;;13.20;99.90;;;;;;4983010;28;20043;-62
2023/01/04 08:41:27;;;;;;;11.85;1.95;;;13.10;99.90;;;;;;4975515;28;20027;-64
2023/01/04 08:44:13;;;;;;;9.13;2.03;;;13.10;99.90;;;;;;4978100;28;20033;-62
2023/01/04 08:46:40;;;;;;;5.00;1.63;;;13.10;99.90;;;;;;4975952;28;20052;-64
2023/01/04 08:49:07;;;;;;;9.27;1.50;;;13.10;99.90;;;;;;4974911;28;20031;-63
2023/01/04 08:51:34;;;;;;;7.47;1.55;;;13.10;99.90;;;;;;4987359;28;20081;-63
2023/01/04 08:54:01;;;;;;;8.65;2.78;;;13.20;99.90;;;;;;4985540;28;20047;-62
2023/01/04 08:56:28;;;;;;;7.22;1.50;;;13.20;99.90;;;;;;4974363;28;20052;-62
2023/01/04 08:58:54;;;;;;;10.32;1.58;;;13.20;99.90;;;;;;4993266;28;20103;-63
2023/01/04 09:01:21;;;;;;;11.57;1.60;;;13.20;99.90;;;;;;4976666;28;20054;-62
2023/01/04 09:03:48;;;;;;;6.90;1.33;;;13.20;99.90;;;;;;4974774;28;20050;-61
2023/01/04 09:06:15;;;;;;;12.80;2.45;;;13.20;99.90;;;;;;4989716;28;20050;-61
2023/01/04 09:08:42;;;;;;;7.22;1.85;;;13.30;99.90;;;;;;4976938;28;20031;-63
2023/01/04 09:11:12;;;;;;;9.82;1.92;;;13.30;99.90;;;;;;4975692;28;20043;-62
2023/01/04 09:13:39;;;;;;;4.53;1.50;;;13.30;99.90;;;;;;4993915;28;20334;-63
2023/01/04 09:16:08;;;;;;;9.77;1.65;;;13.30;99.90;;;;;;4992792;28;20613;-62
2023/01/04 09:18:35;;;;;;;11.38;1.92;;;13.30;99.90;;;;;;4976689;28;20036;-63
2023/01/04 09:21:07;;;;;;;11.73;2.80;;;13.30;99.90;;;;;;4992585;28;20106;-64
2023/01/04 09:23:35;;;;;;;9.85;2.08;;;13.30;99.90;;;;;;4972257;28;20066;-63
2023/01/04 09:26:12;;;;;;;17.58;2.92;;;13.40;99.90;;;;;;4987579;28;20042;-62
2023/01/04 09:28:39;;;;;;;7.05;1.95;;;13.40;99.90;;;;;;4993065;28;20057;-61
2023/01/04 09:31:11;;;;;;;8.90;2.08;;;13.40;99.90;;;;;;4975326;28;20045;-62
2023/01/04 09:33:37;;;;;;;10.25;1.65;;;13.40;99.90;;;;;;4974268;28;20055;-61
2023/01/04 09:36:24;;;;;;;13.52;3.10;;;13.50;99.90;;;;;;4990917;28;20043;-62
2023/01/04 09:38:51;;;;;;;7.22;1.75;;;13.50;99.90;;;;;;4975391;28;20086;-62
2023/01/04 09:41:24;;;;;;;14.43;2.75;;;13.50;99.90;;;;;;4974727;28;20023;-61
2023/01/04 09:43:55;;;;;;;14.80;3.33;;;13.50;99.90;;;;;;4991956;28;20043;-61
2023/01/04 09:46:33;;;;;;;16.42;3.17;;;13.50;99.90;;;;;;4991608;28;20070;-61
2023/01/04 09:49:23;;;;;;;17.45;2.40;;;13.50;99.90;;;;;;4985443;28;20031;-63
2023/01/04 09:52:07;;;;;;;17.20;2.10;;;13.50;99.90;;;;;;4974228;28;20065;-62
2023/01/04 09:55:06;;;;;;;21.48;2.88;;;13.50;99.90;;;;;;4945975;29;20047;-62
2023/01/04 09:57:56;;;;;;;12.70;2.85;;;13.60;99.90;;;;;;4978418;28;20050;-63
2023/01/04 10:00:26;;;;;;;11.50;2.50;;;13.60;99.90;;;;;;4993481;28;20066;-62
2023/01/04 10:03:09;;;;;;;10.50;3.15;;;13.70;99.90;;;;;;4992104;28;20066;-63
2023/01/04 10:05:36;;;;;;;14.57;2.78;;;13.70;99.90;;;;;;4991104;28;20110;-62
2023/01/04 10:08:04;;;;;;;14.98;2.35;;;13.70;99.90;;;;;;4992803;28;20061;-62
2023/01/04 10:11:01;;;;;;;11.75;2.17;;;13.70;99.90;;;;;;4975138;28;20070;-64
2023/01/04 10:13:52;;;;;;;15.45;3.30;;;13.70;99.90;;;;;;4989528;28;20065;-63
2023/01/04 10:16:34;;;;;;;9.52;1.98;;;13.70;99.90;;;;;;4976964;28;20050;-63
2023/01/04 10:19:26;;;;;;;14.23;3.13;;;13.80;99.90;;;;;;4981845;28;20035;-64
2023/01/04 10:22:23;;;;;;;16.42;2.65;;;13.80;99.90;;;;;;4991793;28;20058;-63
2023/01/04 10:25:24;;;;;;;22.33;5.30;;;13.80;99.90;;;;;;4962251;28;20062;-64
2023/01/04 10:28:13;;;;;;;23.88;3.03;;;13.80;99.90;;;;;;4977832;28;20065;-63
2023/01/04 10:31:06;;;;;;;17.80;3.70;;;13.80;99.90;;;;;;4966270;28;20031;-63
2023/01/04 10:33:56;;;;;;;16.40;2.95;;;13.80;99.90;;;;;;4993280;28;20054;-64
2023/01/04 10:36:27;;;;;;;20.17;2.83;;;13.80;99.90;;;;;;4992641;28;20051;-65
2023/01/04 10:39:04;;;;;;;12.60;2.58;;;13.90;99.90;;;;;;4977328;28;20062;-61
2023/01/04 10:41:48;;;;;;;19.10;2.88;;;13.90;99.90;;;;;;4977773;28;20043;-61
2023/01/04 10:44:24;;;;;;;13.82;3.25;;;13.80;99.90;;;;;;4964425;28;20066;-63
2023/01/04 10:47:10;;;;;;;17.77;2.92;;;13.80;99.90;;;;;;4964074;28;20058;-62
2023/01/04 10:49:40;;;;;;;11.52;2.95;;;13.90;99.90;;;;;;4977473;28;20039;-62
2023/01/04 10:52:17;;;;;;;13.93;2.70;;;13.90;99.90;;;;;;4995028;28;20058;-63
2023/01/04 10:54:59;;;;;;;15.48;2.67;;;13.90;99.90;;;;;;4977438;28;20322;-62
2023/01/04 10:57:40;;;;;;;10.63;2.65;;;13.90;99.90;;;;;;4979277;28;20051;-61
2023/01/04 11:00:11;;;;;;;16.75;3.30;;;13.90;99.90;;;;;;4960115;28;20041;-63
2023/01/04 11:03:16;;;;;;;18.15;3.70;;;14.00;99.90;;;;;;4978367;28;20054;-62
2023/01/04 11:05:50;;;;;;;18.38;3.42;;;14.00;99.90;;;;;;4945610;29;20063;-63
2023/01/04 11:08:33;;;;;;;17.02;3.03;;;14.00;99.90;;;;;;4937316;29;20036;-62
2023/01/04 11:11:03;;;;;;;9.40;2.83;;;14.00;99.90;;;;;;4967882;28;20023;-62
2023/01/04 11:13:30;;;;;;;23.70;3.53;;;14.00;99.90;;;;;;4986897;28;20045;-61
2023/01/04 11:15:57;;;;;;;18.58;3.28;;;14.00;99.90;;;;;;4967533;28;20027;-62
2023/01/04 11:18:23;;;;;;;11.70;2.22;;;14.00;99.90;;;;;;4994214;28;20046;-61
2023/01/04 11:20:50;;;;;;;15.77;2.75;;;14.00;99.90;;;;;;4962119;28;20051;-63
2023/01/04 11:23:20;;;;;;;17.63;3.58;;;14.00;99.90;;;;;;4977948;28;20086;-64
2023/01/04 11:25:50;;;;;;;14.35;2.65;;;14.10;99.90;;;;;;4994094;28;20253;-62
2023/01/04 11:28:43;;;;;;;14.80;3.03;;;14.00;99.90;;;;;;4963627;28;20047;-63
2023/01/04 11:31:25;;;;;;;15.35;3.38;;;14.10;99.90;;;;;;4978137;28;20118;-63
2023/01/04 11:34:02;;;;;;;18.58;3.45;;;14.00;99.90;;;;;;4994638;28;20292;-62
2023/01/04 11:36:38;;;;;;;19.35;3.85;;;14.10;99.90;;;;;;4978085;28;20114;-63
2023/01/04 11:39:16;;;;;;;15.02;3.35;;;14.10;99.90;;;;;;4994317;28;20038;-62
2023/01/04 11:42:02;;;;;;;15.20;3.45;;;14.10;99.90;;;;;;4977208;28;20086;-63
2023/01/04 11:44:32;;;;;;;9.88;2.58;;;14.10;99.90;;;;;;4993756;28;20069;-63
2023/01/04 11:47:23;;;;;;;12.52;2.67;;;14.10;99.90;;;;;;4983886;28;20042;-62
2023/01/04 11:49:54;;;;;;;20.42;2.90;;;14.10;99.90;;;;;;4978748;28;20045;-62
2023/01/04 11:52:38;;;;;;;14.05;3.53;;;14.10;99.90;;;;;;4950757;28;20046;-63
2023/01/04 11:55:14;;;;;;;;;;;14.20;99.90;;;;;;4616745;28;10000502;-63
2023/01/04 11:57:41;;;;;;;19.70;3.03;;;14.10;99.90;;;;;;5005637;28;19910;-64
2023/01/04 12:00:13;;;;;;;20.90;3.22;;;14.10;99.90;;;;;;4997422;28;20047;-63
2023/01/04 12:02:40;;;;;;;17.00;3.28;;;14.10;99.90;;;;;;4996647;28;20034;-62
2023/01/04 12:05:26;;;;;;;15.02;3.15;;;14.10;99.90;;;;;;4982382;28;20045;-63
2023/01/04 12:07:57;;;;;;;14.93;2.90;;;14.10;99.90;;;;;;4977597;28;20113;-61
2023/01/04 12:10:25;;;;;;;21.70;3.25;;;14.10;99.90;;;;;;4980231;28;20030;-63
2023/01/04 12:12:53;;;;;;;14.88;3.60;;;14.10;99.90;;;;;;4981020;28;20243;-62
2023/01/04 12:15:38;;;;;;;19.17;4.13;;;14.10;99.90;;;;;;4980345;28;20031;-63
2023/01/04 12:18:20;;;;;;;14.15;3.25;;;14.10;99.90;;;;;;4987041;28;20061;-62
2023/01/04 12:20:47;;;;;;;12.23;2.97;;;14.10;99.90;;;;;;4964513;28;20223;-63
2023/01/04 12:23:13;;;;;;;17.50;2.75;;;14.10;99.90;;;;;;4980164;28;20086;-62
2023/01/04 12:25:47;;;;;;;16.63;3.75;;;14.10;99.90;;;;;;4980587;28;20035;-62
2023/01/04 12:28:32;;;;;;;19.88;3.30;;;14.10;99.90;;;;;;4965889;28;20073;-63
2023/01/04 12:31:18;;;;;;;15.15;4.00;;;14.10;99.90;;;;;;4980942;28;20054;-63
2023/01/04 12:33:48;;;;;;;22.15;4.75;;;14.00;99.90;;;;;;4988557;28;20035;-62
2023/01/04 12:36:37;;;;;;;17.70;3.30;;;14.10;99.90;;;;;;4980096;28;20114;-62
2023/01/04 12:39:28;;;;;;;24.80;3.80;;;14.00;99.90;;;;;;4989268;28;20130;-63
2023/01/04 12:42:02;;;;;;;19.77;3.28;;;14.00;99.90;;;;;;4979272;28;20078;-62
2023/01/04 12:44:35;;;;;;;27.48;6.38;;;14.00;99.90;;;;;;4996875;28;20098;-62
2023/01/04 12:50:22;;;;;;;16.88;3.75;;;14.00;99.90;;;;;;4996954;28;20039;-62
2023/01/04 12:52:49;;;;;;;14.23;3.25;;;14.00;99.90;;;;;;4995618;28;20106;-62
2023/01/04 12:55:40;;;;;;;20.23;4.25;;;14.00;99.90;;;;;;4962801;29;20035;-63
2023/01/04 12:59:02;;;;;;;21.50;3.58;;;13.90;99.90;;;;;;4992192;28;20577;-63
2023/01/04 13:02:18;;;;;;;19.60;3.67;;;13.90;99.90;;;;;;4955928;28;20087;-62
2023/01/04 13:04:46;;;;;;;16.58;3.30;;;13.80;99.90;;;;;;4995534;28;20053;-61
2023/01/04 13:07:18;;;;;;;17.23;4.13;;;13.70;99.90;;;;;;4978314;28;20030;-65
2023/01/04 13:09:56;;;;;;;17.58;3.63;;;13.70;99.90;;;;;;4954415;28;20037;-61
2023/01/04 13:12:48;;;;;;;14.13;3.38;;;13.70;99.90;;;;;;4979688;28;20035;-63
2023/01/04 13:15:23;;;;;;;15.65;3.40;;;13.70;99.90;;;;;;4988640;28;20042;-63
2023/01/04 13:17:49;;;;;;;21.33;4.38;;;13.70;99.90;;;;;;4979276;28;20031;-63
2023/01/04 13:20:21;;;;;;;17.23;3.97;;;13.70;99.90;;;;;;4979663;28;20054;-63
2023/01/04 13:22:53;;;;;;;13.75;4.53;;;13.70;99.90;;;;;;4963194;28;20035;-62
2023/01/04 13:25:21;;;;;;;15.63;3.88;;;13.70;99.90;;;;;;4988269;28;20066;-62
2023/01/04 13:27:55;;;;;;;23.65;4.55;;;13.70;99.90;;;;;;4964016;28;20030;-63
2023/01/04 13:30:33;;;;;;;17.67;3.17;;;13.60;99.90;;;;;;4978917;28;20058;-62
2023/01/04 13:33:17;;;;;;;10.60;3.78;;;13.60;99.90;;;;;;4978993;28;20043;-62
2023/01/04 13:36:03;;;;;;;17.15;3.20;;;13.60;99.90;;;;;;4987639;28;20065;-63
2023/01/04 13:38:30;;;;;;;19.30;3.95;;;13.60;99.90;;;;;;4995628;28;20043;-63
2023/01/04 13:40:57;;;;;;;25.75;5.90;;;13.60;99.90;;;;;;4962708;28;20156;-64
2023/01/04 13:43:40;;;;;;;19.48;4.80;;;13.60;99.90;;;;;;4957419;28;20078;-62
2023/01/04 13:46:18;;;;;;;27.98;4.43;;;13.60;99.90;;;;;;4951459;28;20125;-64
2023/01/04 13:48:46;;;;;;;20.42;4.68;;;13.60;99.90;;;;;;4955740;28;20081;-63
2023/01/04 13:51:14;;;;;;;20.40;3.67;;;13.60;99.90;;;;;;4961595;28;20477;-64
2023/01/04 13:53:41;;;;;;;23.23;4.90;;;13.50;99.90;;;;;;4971042;28;20101;-63
2023/01/04 13:56:18;;;;;;;27.98;6.35;;;13.60;99.90;;;;;;4975891;28;20065;-62